createdAt,value
2017-09-19T00:00:26.775Z,0.00
2017-09-19T00:01:26.737Z,0.00
2017-09-19T00:02:26.702Z,0.00
2017-09-19T00:03:26.662Z,0.00
2017-09-19T00:04:26.628Z,0.00
2017-09-19T00:05:26.615Z,0.00
2017-09-19T00:06:26.554Z,0.00
2017-09-19T00:07:26.526Z,0.00
2017-09-19T00:08:26.480Z,0.00
2017-09-19T00:09:26.445Z,0.00
2017-09-19T00:10:26.424Z,0.00
2017-09-19T00:11:26.371Z,0.00
2017-09-19T00:12:26.362Z,0.00
2017-09-19T00:13:26.315Z,0.00
2017-09-19T00:14:26.266Z,0.00
2017-09-19T00:15:26.230Z,0.00
2017-09-19T00:16:26.190Z,0.00
2017-09-19T00:17:26.192Z,0.00
2017-09-19T00:18:26.125Z,0.00
2017-09-19T00:19:26.083Z,0.00
2017-09-19T00:20:26.055Z,0.00
2017-09-19T00:21:26.013Z,0.00
2017-09-19T00:22:25.969Z,0.00
2017-09-19T00:23:25.960Z,0.00
2017-09-19T00:24:25.899Z,0.00
2017-09-19T00:25:25.864Z,0.00
2017-09-19T00:26:25.823Z,0.00
2017-09-19T00:27:25.798Z,0.00
2017-09-19T00:28:25.753Z,0.00
2017-09-19T00:29:25.721Z,0.00
2017-09-19T00:30:25.688Z,0.00
2017-09-19T00:31:25.648Z,0.00
2017-09-19T00:32:25.606Z,0.00
2017-09-19T00:33:25.575Z,0.00
2017-09-19T00:34:25.539Z,0.00
2017-09-19T00:35:25.501Z,0.00
2017-09-19T00:36:25.473Z,0.00
2017-09-19T00:37:25.430Z,0.00
2017-09-19T00:38:25.395Z,0.00
2017-09-19T00:39:25.354Z,0.00
2017-09-19T00:40:25.334Z,0.00
2017-09-19T00:41:25.280Z,0.00
2017-09-19T00:42:25.242Z,0.00
2017-09-19T00:43:25.216Z,0.00
2017-09-19T00:44:25.172Z,0.00
2017-09-19T00:45:25.134Z,0.00
2017-09-19T00:46:25.101Z,0.00
2017-09-19T00:47:25.062Z,0.00
2017-09-19T00:48:25.041Z,0.00
2017-09-19T00:49:25.007Z,0.00
2017-09-19T00:50:24.954Z,0.00
2017-09-19T00:51:24.908Z,0.00
2017-09-19T00:52:24.874Z,0.00
2017-09-19T00:53:24.836Z,0.00
2017-09-19T00:54:24.798Z,0.00
2017-09-19T00:55:24.764Z,0.00
2017-09-19T00:56:24.729Z,0.00
2017-09-19T00:57:24.701Z,0.00
2017-09-19T00:58:24.651Z,0.00
2017-09-19T00:59:24.619Z,0.00
2017-09-19T01:00:24.602Z,0.00
2017-09-19T01:01:24.556Z,0.00
2017-09-19T01:02:24.507Z,0.00
2017-09-19T01:03:24.469Z,0.00
2017-09-19T01:04:24.436Z,0.00
2017-09-19T01:05:24.408Z,0.00
2017-09-19T01:06:24.360Z,0.00
2017-09-19T01:07:24.326Z,0.00
2017-09-19T01:08:24.290Z,0.00
2017-09-19T01:09:24.248Z,0.00
2017-09-19T01:10:24.212Z,0.00
2017-09-19T01:11:24.178Z,0.00
2017-09-19T01:12:24.143Z,0.00
2017-09-19T01:13:24.103Z,0.00
2017-09-19T01:14:24.066Z,0.00
2017-09-19T01:15:24.030Z,0.00
2017-09-19T01:16:23.996Z,0.00
2017-09-19T01:17:23.956Z,0.00
2017-09-19T01:18:23.927Z,0.00
2017-09-19T01:19:23.886Z,0.00
2017-09-19T01:20:23.843Z,0.00
2017-09-19T01:21:23.811Z,0.00
2017-09-19T01:22:23.771Z,0.00
2017-09-19T01:23:23.734Z,0.00
2017-09-19T01:24:23.699Z,0.00
2017-09-19T01:25:23.663Z,0.00
2017-09-19T01:26:23.625Z,0.00
2017-09-19T01:27:23.598Z,0.00
2017-09-19T01:28:23.552Z,0.00
2017-09-19T01:29:23.522Z,0.00
2017-09-19T01:30:23.481Z,0.00
2017-09-19T01:31:23.439Z,0.00
2017-09-19T01:32:23.402Z,0.00
2017-09-19T01:33:23.367Z,0.00
2017-09-19T01:34:23.327Z,0.00
2017-09-19T01:35:23.292Z,0.00
2017-09-19T01:36:23.256Z,0.00
2017-09-19T01:37:23.220Z,0.00
2017-09-19T01:38:23.186Z,0.00
2017-09-19T01:39:23.146Z,0.00
2017-09-19T01:40:23.130Z,0.00
2017-09-19T01:41:23.074Z,0.00
2017-09-19T01:42:23.038Z,0.00
2017-09-19T01:43:23.005Z,0.00
2017-09-19T01:44:22.962Z,0.00
2017-09-19T01:45:22.927Z,0.00
2017-09-19T01:46:22.888Z,0.00
2017-09-19T01:47:22.850Z,0.00
2017-09-19T01:48:22.816Z,0.00
2017-09-19T01:49:22.780Z,0.00
2017-09-19T01:50:22.739Z,0.00
2017-09-19T01:51:22.705Z,0.00
2017-09-19T01:52:22.669Z,0.00
2017-09-19T01:53:22.630Z,0.00
2017-09-19T01:54:22.592Z,0.00
2017-09-19T01:55:22.554Z,0.00
2017-09-19T01:56:22.521Z,0.00
2017-09-19T01:57:22.484Z,0.00
2017-09-19T01:58:22.443Z,0.00
2017-09-19T01:59:22.408Z,0.00
2017-09-19T02:00:22.381Z,0.00
2017-09-19T02:01:22.336Z,0.00
2017-09-19T02:02:22.297Z,0.00
2017-09-19T02:03:22.260Z,0.00
2017-09-19T02:04:22.232Z,0.00
2017-09-19T02:05:22.196Z,0.00
2017-09-19T02:06:22.150Z,0.00
2017-09-19T02:07:22.117Z,0.00
2017-09-19T02:08:22.076Z,0.00
2017-09-19T02:09:22.080Z,0.00
2017-09-19T02:10:22.002Z,0.00
2017-09-19T02:11:21.963Z,0.00
2017-09-19T02:12:21.928Z,0.00
2017-09-19T02:13:21.890Z,0.00
2017-09-19T02:14:21.860Z,0.00
2017-09-19T02:15:21.817Z,0.00
2017-09-19T02:16:21.779Z,0.00
2017-09-19T02:17:21.744Z,0.00
2017-09-19T02:18:21.703Z,0.00
2017-09-19T02:19:21.673Z,0.00
2017-09-19T02:20:21.630Z,0.00
2017-09-19T02:21:21.595Z,0.00
2017-09-19T02:22:21.568Z,0.00
2017-09-19T02:23:21.554Z,0.00
2017-09-19T02:24:21.490Z,0.00
2017-09-19T02:25:21.446Z,0.00
2017-09-19T02:26:21.409Z,0.00
2017-09-19T02:27:21.373Z,0.00
2017-09-19T02:28:21.335Z,0.00
2017-09-19T02:29:21.301Z,0.00
2017-09-19T02:30:21.260Z,0.00
2017-09-19T02:31:21.226Z,0.00
2017-09-19T02:32:21.188Z,0.00
2017-09-19T02:33:21.151Z,0.00
2017-09-19T02:34:21.113Z,0.00
2017-09-19T02:35:21.084Z,0.00
2017-09-19T02:36:21.048Z,0.00
2017-09-19T02:37:21.010Z,0.00
2017-09-19T02:38:20.967Z,0.00
2017-09-19T02:39:20.946Z,0.00
2017-09-19T02:40:20.901Z,0.00
2017-09-19T02:41:20.862Z,0.00
2017-09-19T02:42:20.811Z,0.00
2017-09-19T02:43:20.781Z,0.00
2017-09-19T02:44:20.751Z,0.00
2017-09-19T02:45:20.724Z,0.00
2017-09-19T02:46:20.670Z,0.00
2017-09-19T02:47:20.636Z,0.00
2017-09-19T02:48:20.598Z,0.00
2017-09-19T02:49:20.556Z,0.00
2017-09-19T02:50:20.554Z,0.00
2017-09-19T02:51:20.482Z,0.00
2017-09-19T02:52:20.460Z,0.00
2017-09-19T02:53:20.447Z,0.00
2017-09-19T02:54:20.412Z,0.00
2017-09-19T02:55:20.382Z,0.00
2017-09-19T02:56:20.308Z,0.00
2017-09-19T02:57:20.299Z,0.00
2017-09-19T02:58:20.277Z,0.00
2017-09-19T02:59:20.211Z,0.00
2017-09-19T03:00:20.157Z,0.00
2017-09-19T03:01:20.113Z,0.00
2017-09-19T03:02:20.080Z,0.00
2017-09-19T03:03:20.037Z,0.00
2017-09-19T03:04:19.999Z,0.00
2017-09-19T03:05:19.972Z,0.00
2017-09-19T03:06:19.930Z,0.00
2017-09-19T03:07:19.901Z,0.00
2017-09-19T03:08:19.853Z,0.00
2017-09-19T03:09:19.897Z,0.00
2017-09-19T03:10:19.782Z,0.00
2017-09-19T03:11:19.742Z,0.00
2017-09-19T03:12:19.727Z,0.00
2017-09-19T03:13:19.665Z,0.00
2017-09-19T03:14:19.626Z,0.00
2017-09-19T03:15:19.594Z,0.00
2017-09-19T03:16:19.600Z,0.00
2017-09-19T03:17:19.533Z,0.00
2017-09-19T03:18:19.532Z,0.00
2017-09-19T03:19:19.473Z,0.00
2017-09-19T03:20:19.513Z,0.00
2017-09-19T03:21:19.370Z,0.00
2017-09-19T03:22:19.337Z,0.00
2017-09-19T03:23:19.294Z,0.00
2017-09-19T03:24:19.943Z,0.00
2017-09-19T03:25:19.219Z,0.00
2017-09-19T03:26:19.185Z,0.00
2017-09-19T03:27:19.150Z,0.00
2017-09-19T03:28:19.105Z,0.00
2017-09-19T03:29:19.069Z,0.00
2017-09-19T03:30:19.029Z,0.00
2017-09-19T03:31:18.992Z,0.00
2017-09-19T03:32:18.956Z,0.00
2017-09-19T03:33:18.918Z,0.00
2017-09-19T03:34:18.885Z,0.00
2017-09-19T03:35:18.844Z,0.00
2017-09-19T03:36:18.807Z,0.00
2017-09-19T03:37:18.799Z,0.00
2017-09-19T03:38:18.737Z,0.00
2017-09-19T03:39:18.697Z,0.00
2017-09-19T03:40:18.658Z,0.00
2017-09-19T03:41:18.622Z,0.00
2017-09-19T03:42:18.585Z,0.00
2017-09-19T03:43:18.547Z,0.00
2017-09-19T03:44:18.512Z,0.00
2017-09-19T03:45:18.476Z,0.00
2017-09-19T03:46:18.461Z,0.00
2017-09-19T03:47:18.428Z,0.00
2017-09-19T03:48:20.324Z,0.00
2017-09-19T03:49:18.327Z,0.00
2017-09-19T03:50:18.284Z,0.00
2017-09-19T03:51:18.247Z,0.00
2017-09-19T03:52:18.209Z,0.00
2017-09-19T03:53:18.177Z,0.00
2017-09-19T03:54:18.142Z,0.00
2017-09-19T03:55:18.095Z,0.00
2017-09-19T03:56:18.071Z,0.00
2017-09-19T03:57:18.052Z,0.00
2017-09-19T03:58:18.005Z,0.00
2017-09-19T03:59:17.948Z,0.00
2017-09-19T04:00:17.909Z,0.00
2017-09-19T04:01:17.871Z,0.00
2017-09-19T04:02:17.835Z,0.00
2017-09-19T04:03:17.802Z,0.00
2017-09-19T04:04:17.760Z,0.00
2017-09-19T04:05:17.742Z,0.00
2017-09-19T04:06:17.683Z,0.00
2017-09-19T04:07:17.647Z,0.00
2017-09-19T04:08:17.612Z,0.00
2017-09-19T04:09:17.582Z,0.00
2017-09-19T04:10:17.535Z,0.00
2017-09-19T04:11:17.625Z,0.00
2017-09-19T04:12:17.462Z,0.00
2017-09-19T04:13:17.425Z,0.00
2017-09-19T04:14:17.390Z,0.00
2017-09-19T04:15:17.347Z,0.00
2017-09-19T04:16:17.311Z,0.00
2017-09-19T04:17:17.278Z,0.00
2017-09-19T04:18:17.244Z,0.00
2017-09-19T04:19:17.199Z,0.00
2017-09-19T04:20:17.161Z,0.00
2017-09-19T04:21:17.124Z,0.00
2017-09-19T04:22:17.097Z,0.00
2017-09-19T04:23:17.047Z,0.00
2017-09-19T04:24:17.017Z,0.00
2017-09-19T04:25:16.974Z,0.00
2017-09-19T04:26:16.938Z,0.00
2017-09-19T04:27:16.902Z,0.00
2017-09-19T04:28:16.875Z,0.00
2017-09-19T04:29:16.824Z,0.00
2017-09-19T04:30:16.786Z,0.00
2017-09-19T04:31:16.755Z,0.00
2017-09-19T04:32:16.711Z,0.00
2017-09-19T04:33:16.674Z,5.63
2017-09-19T04:34:16.636Z,5.63
2017-09-19T04:35:16.604Z,5.63
2017-09-19T04:36:16.565Z,5.63
2017-09-19T04:37:16.525Z,5.63
2017-09-19T04:38:16.491Z,5.63
2017-09-19T04:39:16.449Z,11.25
2017-09-19T04:40:16.417Z,11.25
2017-09-19T04:41:16.376Z,11.25
2017-09-19T04:42:16.340Z,11.25
2017-09-19T04:43:16.301Z,16.88
2017-09-19T04:44:16.263Z,16.88
2017-09-19T04:45:16.237Z,16.88
2017-09-19T04:46:16.191Z,22.50
2017-09-19T04:47:16.152Z,22.50
2017-09-19T04:48:16.110Z,22.50
2017-09-19T04:49:16.078Z,28.13
2017-09-19T04:50:16.037Z,28.13
2017-09-19T04:51:16.000Z,33.75
2017-09-19T04:52:15.969Z,33.75
2017-09-19T04:53:15.931Z,39.38
2017-09-19T04:54:15.889Z,39.38
2017-09-19T04:55:15.851Z,45.00
2017-09-19T04:56:15.817Z,45.00
2017-09-19T04:57:15.774Z,50.63
2017-09-19T04:58:15.740Z,56.25
2017-09-19T04:59:15.712Z,67.50
2017-09-19T05:00:15.662Z,78.75
2017-09-19T05:01:15.626Z,84.38
2017-09-19T05:02:15.603Z,95.63
2017-09-19T05:03:15.552Z,112.50
2017-09-19T05:04:15.521Z,140.63
2017-09-19T05:05:15.475Z,146.25
2017-09-19T05:06:15.456Z,163.13
2017-09-19T05:07:15.405Z,174.38
2017-09-19T05:08:15.363Z,191.25
2017-09-19T05:09:15.329Z,202.50
2017-09-19T05:10:15.289Z,225.00
2017-09-19T05:11:15.252Z,236.25
2017-09-19T05:12:15.216Z,241.88
2017-09-19T05:13:15.180Z,236.25
2017-09-19T05:14:15.147Z,247.50
2017-09-19T05:15:15.104Z,270.00
2017-09-19T05:16:15.076Z,309.38
2017-09-19T05:17:15.034Z,348.75
2017-09-19T05:18:14.994Z,331.88
2017-09-19T05:19:14.965Z,292.50
2017-09-19T05:20:14.931Z,292.50
2017-09-19T05:21:14.904Z,326.25
2017-09-19T05:22:14.860Z,360.00
2017-09-19T05:23:14.821Z,354.38
2017-09-19T05:24:14.800Z,360.00
2017-09-19T05:25:14.778Z,450.00
2017-09-19T05:26:14.706Z,489.38
2017-09-19T05:27:14.670Z,427.50
2017-09-19T05:28:14.652Z,382.50
2017-09-19T05:29:14.605Z,506.25
2017-09-19T05:30:14.587Z,511.88
2017-09-19T05:31:14.553Z,444.38
2017-09-19T05:32:14.519Z,579.38
2017-09-19T05:33:14.463Z,528.75
2017-09-19T05:34:14.441Z,472.50
2017-09-19T05:35:14.456Z,528.75
2017-09-19T05:36:14.414Z,635.63
2017-09-19T05:37:14.329Z,556.88
2017-09-19T05:38:14.291Z,540.00
2017-09-19T05:39:14.253Z,585.00
2017-09-19T05:40:14.230Z,500.63
2017-09-19T05:41:14.189Z,551.25
2017-09-19T05:42:14.169Z,562.50
2017-09-19T05:43:14.121Z,579.38
2017-09-19T05:44:14.089Z,630.00
2017-09-19T05:45:14.052Z,680.63
2017-09-19T05:46:14.056Z,607.50
2017-09-19T05:47:14.000Z,630.00
2017-09-19T05:48:13.964Z,725.63
2017-09-19T05:49:13.919Z,826.88
2017-09-19T05:50:13.884Z,753.75
2017-09-19T05:51:13.875Z,798.75
2017-09-19T05:52:13.830Z,720.00
2017-09-19T05:53:13.792Z,753.75
2017-09-19T05:54:13.752Z,883.13
2017-09-19T05:55:13.719Z,821.25
2017-09-19T05:56:13.704Z,753.75
2017-09-19T05:57:13.653Z,804.38
2017-09-19T05:58:13.676Z,933.75
2017-09-19T05:59:13.594Z,928.13
2017-09-19T06:00:13.554Z,843.75
2017-09-19T06:01:13.525Z,815.63
2017-09-19T06:02:13.491Z,765.00
2017-09-19T06:03:13.459Z,990.00
2017-09-19T06:04:13.426Z,1231.88
2017-09-19T06:05:13.394Z,1091.25
2017-09-19T06:06:13.369Z,855.00
2017-09-19T06:07:13.327Z,843.75
2017-09-19T06:08:13.296Z,1074.38
2017-09-19T06:09:13.264Z,1102.50
2017-09-19T06:10:13.237Z,967.50
2017-09-19T06:11:13.199Z,1063.13
2017-09-19T06:12:13.165Z,1096.88
2017-09-19T06:13:13.143Z,1029.38
2017-09-19T06:14:13.108Z,1181.25
2017-09-19T06:15:13.074Z,1125.00
2017-09-19T06:16:13.060Z,1102.50
2017-09-19T06:17:13.016Z,1091.25
2017-09-19T06:18:12.983Z,1023.75
2017-09-19T06:19:12.951Z,1170.00
2017-09-19T06:20:12.926Z,1203.75
2017-09-19T06:21:12.888Z,1310.63
2017-09-19T06:22:12.858Z,1231.88
2017-09-19T06:23:12.834Z,1085.63
2017-09-19T06:24:12.795Z,905.63
2017-09-19T06:25:12.775Z,978.75
2017-09-19T06:26:12.733Z,1063.13
2017-09-19T06:27:12.726Z,860.63
2017-09-19T06:28:12.677Z,770.63
2017-09-19T06:29:12.642Z,714.38
2017-09-19T06:30:12.613Z,753.75
2017-09-19T06:31:12.583Z,748.13
2017-09-19T06:32:12.556Z,720.00
2017-09-19T06:33:12.523Z,652.50
2017-09-19T06:34:12.489Z,624.38
2017-09-19T06:35:12.464Z,613.13
2017-09-19T06:36:12.434Z,601.88
2017-09-19T06:37:12.401Z,601.88
2017-09-19T06:38:12.369Z,601.88
2017-09-19T06:39:12.353Z,596.25
2017-09-19T06:40:12.314Z,556.88
2017-09-19T06:41:12.280Z,551.25
2017-09-19T06:42:12.248Z,556.88
2017-09-19T06:43:12.222Z,562.50
2017-09-19T06:44:12.189Z,573.75
2017-09-19T06:45:12.161Z,585.00
2017-09-19T06:46:12.171Z,585.00
2017-09-19T06:47:12.097Z,590.63
2017-09-19T06:48:12.072Z,585.00
2017-09-19T06:49:12.043Z,590.63
2017-09-19T06:50:12.010Z,585.00
2017-09-19T06:51:11.988Z,579.38
2017-09-19T06:52:11.950Z,562.50
2017-09-19T06:53:11.924Z,511.88
2017-09-19T06:54:11.902Z,489.38
2017-09-19T06:55:11.871Z,483.75
2017-09-19T06:56:11.839Z,478.13
2017-09-19T06:57:11.806Z,472.50
2017-09-19T06:58:11.780Z,466.88
2017-09-19T06:59:11.747Z,450.00
2017-09-19T07:00:11.717Z,438.75
2017-09-19T07:01:11.703Z,427.50
2017-09-19T07:02:11.659Z,416.25
2017-09-19T07:03:11.644Z,416.25
2017-09-19T07:04:11.602Z,410.63
2017-09-19T07:05:11.568Z,410.63
2017-09-19T07:06:11.537Z,410.63
2017-09-19T07:07:11.505Z,410.63
2017-09-19T07:08:11.481Z,410.63
2017-09-19T07:09:11.445Z,416.25
2017-09-19T07:10:11.414Z,421.88
2017-09-19T07:11:11.392Z,416.25
2017-09-19T07:12:11.354Z,399.38
2017-09-19T07:13:11.322Z,421.88
2017-09-19T07:14:11.289Z,416.25
2017-09-19T07:15:11.256Z,399.38
2017-09-19T07:16:11.229Z,393.75
2017-09-19T07:17:11.203Z,365.63
2017-09-19T07:18:11.163Z,388.13
2017-09-19T07:19:11.133Z,382.50
2017-09-19T07:20:11.115Z,388.13
2017-09-19T07:21:11.069Z,405.00
2017-09-19T07:22:11.040Z,405.00
2017-09-19T07:23:11.003Z,399.38
2017-09-19T07:24:10.970Z,388.13
2017-09-19T07:25:10.950Z,416.25
2017-09-19T07:26:10.916Z,416.25
2017-09-19T07:27:10.900Z,405.00
2017-09-19T07:28:10.851Z,410.63
2017-09-19T07:29:10.810Z,405.00
2017-09-19T07:30:10.774Z,405.00
2017-09-19T07:31:10.743Z,410.63
2017-09-19T07:32:10.712Z,416.25
2017-09-19T07:33:10.680Z,461.25
2017-09-19T07:34:10.647Z,472.50
2017-09-19T07:35:10.613Z,495.00
2017-09-19T07:36:10.605Z,489.38
2017-09-19T07:37:10.550Z,444.38
2017-09-19T07:38:10.515Z,450.00
2017-09-19T07:39:10.482Z,472.50
2017-09-19T07:40:10.463Z,500.63
2017-09-19T07:41:10.418Z,506.25
2017-09-19T07:42:10.406Z,511.88
2017-09-19T07:43:10.363Z,506.25
2017-09-19T07:44:10.320Z,511.88
2017-09-19T07:45:10.300Z,495.00
2017-09-19T07:46:10.316Z,489.38
2017-09-19T07:47:10.243Z,506.25
2017-09-19T07:48:10.192Z,517.50
2017-09-19T07:49:10.160Z,534.38
2017-09-19T07:50:10.133Z,495.00
2017-09-19T07:51:10.128Z,511.88
2017-09-19T07:52:10.070Z,523.13
2017-09-19T07:53:10.048Z,528.75
2017-09-19T07:54:10.021Z,506.25
2017-09-19T07:55:09.983Z,500.63
2017-09-19T07:56:09.960Z,500.63
2017-09-19T07:57:09.908Z,500.63
2017-09-19T07:58:09.869Z,506.25
2017-09-19T07:59:09.841Z,506.25
2017-09-19T08:00:09.807Z,506.25
2017-09-19T08:01:09.785Z,506.25
2017-09-19T08:02:09.750Z,511.88
2017-09-19T08:03:09.711Z,511.88
2017-09-19T08:04:09.676Z,495.00
2017-09-19T08:05:09.728Z,489.38
2017-09-19T08:06:09.613Z,500.63
2017-09-19T08:07:09.592Z,483.75
2017-09-19T08:08:09.549Z,483.75
2017-09-19T08:09:09.559Z,450.00
2017-09-19T08:10:09.481Z,433.13
2017-09-19T08:11:09.453Z,433.13
2017-09-19T08:12:09.426Z,444.38
2017-09-19T08:13:09.396Z,416.25
2017-09-19T08:14:09.370Z,405.00
2017-09-19T08:15:09.324Z,393.75
2017-09-19T08:16:09.288Z,382.50
2017-09-19T08:17:09.254Z,382.50
2017-09-19T08:18:09.226Z,382.50
2017-09-19T08:19:09.195Z,382.50
2017-09-19T08:20:09.161Z,382.50
2017-09-19T08:21:09.125Z,376.88
2017-09-19T08:22:09.096Z,376.88
2017-09-19T08:23:09.058Z,371.25
2017-09-19T08:24:09.030Z,371.25
2017-09-19T08:25:08.998Z,371.25
2017-09-19T08:26:08.972Z,371.25
2017-09-19T08:27:08.931Z,371.25
2017-09-19T08:28:08.895Z,376.88
2017-09-19T08:29:08.875Z,371.25
2017-09-19T08:30:08.840Z,376.88
2017-09-19T08:31:08.802Z,371.25
2017-09-19T08:32:08.780Z,371.25
2017-09-19T08:33:08.734Z,371.25
2017-09-19T08:34:08.702Z,376.88
2017-09-19T08:35:08.678Z,371.25
2017-09-19T08:36:08.634Z,376.88
2017-09-19T08:37:08.612Z,376.88
2017-09-19T08:38:08.572Z,376.88
2017-09-19T08:39:08.535Z,376.88
2017-09-19T08:40:08.503Z,371.25
2017-09-19T08:41:08.471Z,371.25
2017-09-19T08:42:08.437Z,371.25
2017-09-19T08:43:08.409Z,371.25
2017-09-19T08:44:08.369Z,371.25
2017-09-19T08:45:08.346Z,371.25
2017-09-19T08:46:08.300Z,371.25
2017-09-19T08:47:08.270Z,371.25
2017-09-19T08:48:08.238Z,371.25
2017-09-19T08:49:08.206Z,371.25
2017-09-19T08:50:08.179Z,371.25
2017-09-19T08:51:08.140Z,371.25
2017-09-19T08:52:08.114Z,376.88
2017-09-19T08:53:08.073Z,371.25
2017-09-19T08:54:08.035Z,376.88
2017-09-19T08:55:08.003Z,376.88
2017-09-19T08:56:07.975Z,376.88
2017-09-19T08:57:07.940Z,371.25
2017-09-19T08:58:07.903Z,371.25
2017-09-19T08:59:07.877Z,371.25
2017-09-19T09:00:07.837Z,371.25
2017-09-19T09:01:07.810Z,371.25
2017-09-19T09:02:07.767Z,365.63
2017-09-19T09:03:07.737Z,365.63
2017-09-19T09:04:07.727Z,365.63
2017-09-19T09:05:07.671Z,365.63
2017-09-19T09:06:07.642Z,365.63
2017-09-19T09:07:07.610Z,360.00
2017-09-19T09:08:07.569Z,360.00
2017-09-19T09:09:07.537Z,360.00
2017-09-19T09:10:07.502Z,360.00
2017-09-19T09:11:07.470Z,365.63
2017-09-19T09:12:07.432Z,360.00
2017-09-19T09:13:07.409Z,360.00
2017-09-19T09:14:07.379Z,360.00
2017-09-19T09:15:07.338Z,360.00
2017-09-19T09:16:07.310Z,360.00
2017-09-19T09:17:07.267Z,354.38
2017-09-19T09:18:07.234Z,360.00
2017-09-19T09:19:07.200Z,360.00
2017-09-19T09:20:07.163Z,360.00
2017-09-19T09:21:07.137Z,360.00
2017-09-19T09:22:07.100Z,360.00
2017-09-19T09:23:07.079Z,354.38
2017-09-19T09:24:07.035Z,354.38
2017-09-19T09:25:07.007Z,354.38
2017-09-19T09:26:06.970Z,354.38
2017-09-19T09:27:06.934Z,354.38
2017-09-19T09:28:06.899Z,354.38
2017-09-19T09:29:06.867Z,354.38
2017-09-19T09:30:06.844Z,354.38
2017-09-19T09:31:06.802Z,354.38
2017-09-19T09:32:06.767Z,360.00
2017-09-19T09:33:06.735Z,360.00
2017-09-19T09:34:06.702Z,360.00
2017-09-19T09:35:06.670Z,365.63
2017-09-19T09:36:06.642Z,376.88
2017-09-19T09:37:06.616Z,354.38
2017-09-19T09:38:06.569Z,388.13
2017-09-19T09:39:06.536Z,348.75
2017-09-19T09:40:06.501Z,309.38
2017-09-19T09:41:06.474Z,382.50
2017-09-19T09:42:06.441Z,388.13
2017-09-19T09:43:06.417Z,388.13
2017-09-19T09:44:06.368Z,309.38
2017-09-19T09:45:06.332Z,393.75
2017-09-19T09:46:06.310Z,393.75
2017-09-19T09:47:06.268Z,405.00
2017-09-19T09:48:06.236Z,331.88
2017-09-19T09:49:06.204Z,354.38
2017-09-19T09:50:06.172Z,427.50
2017-09-19T09:51:06.137Z,382.50
2017-09-19T09:52:06.108Z,427.50
2017-09-19T09:53:06.076Z,472.50
2017-09-19T09:54:06.036Z,427.50
2017-09-19T09:55:06.003Z,455.63
2017-09-19T09:56:05.969Z,427.50
2017-09-19T09:57:05.937Z,466.88
2017-09-19T09:58:05.905Z,466.88
2017-09-19T09:59:05.869Z,399.38
2017-09-19T10:00:05.836Z,393.75
2017-09-19T10:01:05.807Z,388.13
2017-09-19T10:02:05.770Z,388.13
2017-09-19T10:03:05.739Z,416.25
2017-09-19T10:04:05.714Z,365.63
2017-09-19T10:05:05.674Z,348.75
2017-09-19T10:06:05.640Z,343.13
2017-09-19T10:07:05.610Z,410.63
2017-09-19T10:08:05.574Z,331.88
2017-09-19T10:09:05.544Z,320.63
2017-09-19T10:10:05.511Z,320.63
2017-09-19T10:11:05.477Z,343.13
2017-09-19T10:12:05.452Z,331.88
2017-09-19T10:13:05.416Z,410.63
2017-09-19T10:14:05.382Z,416.25
2017-09-19T10:15:05.389Z,421.88
2017-09-19T10:16:05.317Z,421.88
2017-09-19T10:17:05.279Z,433.13
2017-09-19T10:18:05.259Z,438.75
2017-09-19T10:19:05.234Z,438.75
2017-09-19T10:20:05.189Z,444.38
2017-09-19T10:21:05.192Z,444.38
2017-09-19T10:22:05.123Z,455.63
2017-09-19T10:23:05.083Z,461.25
2017-09-19T10:24:05.058Z,455.63
2017-09-19T10:25:05.018Z,444.38
2017-09-19T10:26:04.981Z,444.38
2017-09-19T10:27:04.953Z,438.75
2017-09-19T10:28:04.923Z,421.88
2017-09-19T10:29:04.912Z,405.00
2017-09-19T10:30:04.857Z,405.00
2017-09-19T10:31:04.831Z,393.75
2017-09-19T10:32:04.806Z,393.75
2017-09-19T10:33:04.791Z,393.75
2017-09-19T10:34:04.718Z,388.13
2017-09-19T10:35:04.695Z,382.50
2017-09-19T10:36:04.667Z,382.50
2017-09-19T10:37:04.633Z,388.13
2017-09-19T10:38:04.590Z,388.13
2017-09-19T10:39:04.565Z,382.50
2017-09-19T10:40:04.530Z,382.50
2017-09-19T10:41:04.505Z,382.50
2017-09-19T10:42:04.461Z,382.50
2017-09-19T10:43:04.430Z,388.13
2017-09-19T10:44:04.401Z,393.75
2017-09-19T10:45:04.383Z,410.63
2017-09-19T10:46:04.338Z,421.88
2017-09-19T10:47:04.298Z,438.75
2017-09-19T10:48:04.270Z,438.75
2017-09-19T10:49:04.323Z,438.75
2017-09-19T10:50:04.205Z,433.13
2017-09-19T10:51:04.162Z,427.50
2017-09-19T10:52:04.132Z,427.50
2017-09-19T10:53:04.106Z,438.75
2017-09-19T10:54:04.066Z,455.63
2017-09-19T10:55:04.042Z,472.50
2017-09-19T10:56:04.004Z,483.75
2017-09-19T10:57:03.978Z,489.38
2017-09-19T10:58:03.947Z,466.88
2017-09-19T10:59:03.902Z,461.25
2017-09-19T11:00:03.870Z,455.63
2017-09-19T11:01:03.844Z,455.63
2017-09-19T11:02:03.805Z,466.88
2017-09-19T11:03:03.771Z,478.13
2017-09-19T11:04:03.743Z,489.38
2017-09-19T11:05:03.707Z,495.00
2017-09-19T11:06:03.672Z,506.25
2017-09-19T11:07:03.642Z,523.13
2017-09-19T11:08:03.610Z,523.13
2017-09-19T11:09:03.579Z,523.13
2017-09-19T11:10:03.545Z,517.50
2017-09-19T11:11:03.511Z,506.25
2017-09-19T11:12:03.493Z,489.38
2017-09-19T11:13:03.450Z,483.75
2017-09-19T11:14:03.415Z,478.13
2017-09-19T11:15:03.384Z,495.00
2017-09-19T11:16:03.362Z,506.25
2017-09-19T11:17:03.321Z,534.38
2017-09-19T11:18:03.296Z,540.00
2017-09-19T11:19:03.267Z,551.25
2017-09-19T11:20:03.226Z,556.88
2017-09-19T11:21:03.195Z,540.00
2017-09-19T11:22:03.168Z,517.50
2017-09-19T11:23:03.128Z,506.25
2017-09-19T11:24:03.099Z,511.88
2017-09-19T11:25:03.070Z,528.75
2017-09-19T11:26:03.033Z,545.63
2017-09-19T11:27:03.012Z,556.88
2017-09-19T11:28:02.973Z,568.13
2017-09-19T11:29:02.948Z,562.50
2017-09-19T11:30:02.908Z,556.88
2017-09-19T11:31:02.878Z,545.63
2017-09-19T11:32:02.846Z,556.88
2017-09-19T11:33:02.815Z,562.50
2017-09-19T11:34:02.785Z,562.50
2017-09-19T11:35:02.752Z,568.13
2017-09-19T11:36:02.719Z,568.13
2017-09-19T11:37:02.693Z,573.75
2017-09-19T11:38:02.661Z,585.00
2017-09-19T11:39:02.627Z,590.63
2017-09-19T11:40:02.596Z,596.25
2017-09-19T11:41:02.565Z,585.00
2017-09-19T11:42:02.536Z,585.00
2017-09-19T11:43:02.506Z,590.63
2017-09-19T11:44:02.473Z,607.50
2017-09-19T11:45:02.444Z,613.13
2017-09-19T11:46:02.429Z,607.50
2017-09-19T11:47:02.383Z,585.00
2017-09-19T11:48:02.349Z,573.75
2017-09-19T11:49:02.327Z,573.75
2017-09-19T11:50:02.288Z,573.75
2017-09-19T11:51:02.261Z,534.38
2017-09-19T11:52:02.235Z,500.63
2017-09-19T11:53:02.200Z,540.00
2017-09-19T11:54:02.167Z,500.63
2017-09-19T11:55:02.139Z,489.38
2017-09-19T11:56:02.108Z,528.75
2017-09-19T11:57:02.075Z,489.38
2017-09-19T11:58:02.045Z,444.38
2017-09-19T11:59:02.020Z,433.13
2017-09-19T12:00:01.989Z,511.88
2017-09-19T12:01:01.952Z,517.50
2017-09-19T12:02:01.924Z,466.88
2017-09-19T12:03:01.900Z,523.13
2017-09-19T12:04:01.863Z,433.13
2017-09-19T12:05:01.876Z,438.75
2017-09-19T12:06:01.812Z,461.25
2017-09-19T12:07:01.786Z,551.25
2017-09-19T12:08:01.743Z,568.13
2017-09-19T12:09:01.717Z,585.00
2017-09-19T12:10:01.693Z,590.63
2017-09-19T12:11:01.648Z,495.00
2017-09-19T12:12:01.628Z,540.00
2017-09-19T12:13:01.597Z,495.00
2017-09-19T12:14:01.570Z,523.13
2017-09-19T12:15:01.529Z,596.25
2017-09-19T12:16:01.501Z,646.88
2017-09-19T12:17:01.471Z,652.50
2017-09-19T12:18:01.442Z,646.88
2017-09-19T12:19:01.407Z,601.88
2017-09-19T12:20:01.382Z,528.75
2017-09-19T12:21:01.347Z,483.75
2017-09-19T12:22:01.316Z,461.25
2017-09-19T12:23:01.289Z,455.63
2017-09-19T12:24:01.265Z,455.63
2017-09-19T12:25:01.233Z,455.63
2017-09-19T12:26:01.199Z,461.25
2017-09-19T12:27:01.177Z,461.25
2017-09-19T12:28:01.137Z,455.63
2017-09-19T12:29:01.113Z,450.00
2017-09-19T12:30:01.113Z,444.38
2017-09-19T12:31:01.050Z,444.38
2017-09-19T12:32:01.019Z,450.00
2017-09-19T12:33:00.986Z,444.38
2017-09-19T12:34:00.977Z,438.75
2017-09-19T12:35:00.926Z,433.13
2017-09-19T12:36:00.897Z,438.75
2017-09-19T12:37:00.887Z,450.00
2017-09-19T12:38:00.847Z,461.25
2017-09-19T12:39:00.817Z,466.88
2017-09-19T12:40:00.789Z,478.13
2017-09-19T12:41:00.748Z,489.38
2017-09-19T12:42:00.719Z,495.00
2017-09-19T12:43:00.684Z,500.63
2017-09-19T12:44:00.654Z,500.63
2017-09-19T12:45:00.658Z,495.00
2017-09-19T12:46:00.615Z,495.00